sensor_id;sensor_type;location;lat;lon;timestamp;temperature;humidity
83685;DHT22;73666;51.304;5.776;2024-02-28T00:04:22;0.00;78.00
83685;DHT22;73666;51.304;5.776;2024-02-28T00:09:23;0.00;77.90
83685;DHT22;73666;51.304;5.776;2024-02-28T00:14:23;-0.10;77.80
83685;DHT22;73666;51.304;5.776;2024-02-28T00:19:24;-0.10;77.80
83685;DHT22;73666;51.304;5.776;2024-02-28T00:24:25;-0.20;77.90
83685;DHT22;73666;51.304;5.776;2024-02-28T00:29:26;-0.20;78.00
83685;DHT22;73666;51.304;5.776;2024-02-28T00:34:27;-0.20;77.90
83685;DHT22;73666;51.304;5.776;2024-02-28T00:39:28;-0.20;78.00
83685;DHT22;73666;51.304;5.776;2024-02-28T00:44:29;-0.20;78.10
83685;DHT22;73666;51.304;5.776;2024-02-28T00:49:30;-0.20;78.20
83685;DHT22;73666;51.304;5.776;2024-02-28T00:54:34;-0.20;78.20
83685;DHT22;73666;51.304;5.776;2024-02-28T00:59:35;-0.30;78.10
83685;DHT22;73666;51.304;5.776;2024-02-28T01:04:35;-0.20;78.10
83685;DHT22;73666;51.304;5.776;2024-02-28T01:09:37;-0.20;78.20
83685;DHT22;73666;51.304;5.776;2024-02-28T01:14:38;-0.20;78.50
83685;DHT22;73666;51.304;5.776;2024-02-28T01:19:39;-0.10;78.60
83685;DHT22;73666;51.304;5.776;2024-02-28T01:24:43;0.00;78.60
83685;DHT22;73666;51.304;5.776;2024-02-28T01:29:44;0.00;78.60
83685;DHT22;73666;51.304;5.776;2024-02-28T01:34:48;0.30;78.50
83685;DHT22;73666;51.304;5.776;2024-02-28T01:39:49;0.40;78.30
83685;DHT22;73666;51.304;5.776;2024-02-28T01:44:50;0.50;78.30
83685;DHT22;73666;51.304;5.776;2024-02-28T01:49:51;0.50;78.20
83685;DHT22;73666;51.304;5.776;2024-02-28T01:54:55;0.50;78.10
83685;DHT22;73666;51.304;5.776;2024-02-28T01:59:56;0.60;78.20
83685;DHT22;73666;51.304;5.776;2024-02-28T02:04:57;0.60;78.20
83685;DHT22;73666;51.304;5.776;2024-02-28T02:09:58;0.60;78.30
83685;DHT22;73666;51.304;5.776;2024-02-28T02:14:59;0.60;78.30
83685;DHT22;73666;51.304;5.776;2024-02-28T02:20:01;0.60;78.30
83685;DHT22;73666;51.304;5.776;2024-02-28T02:25:03;0.60;78.30
83685;DHT22;73666;51.304;5.776;2024-02-28T02:30:04;0.60;78.30
83685;DHT22;73666;51.304;5.776;2024-02-28T02:35:06;0.60;78.40
83685;DHT22;73666;51.304;5.776;2024-02-28T02:40:08;0.60;78.40
83685;DHT22;73666;51.304;5.776;2024-02-28T02:45:11;0.60;78.40
83685;DHT22;73666;51.304;5.776;2024-02-28T02:50:12;0.60;78.40
83685;DHT22;73666;51.304;5.776;2024-02-28T02:55:14;0.70;78.40
83685;DHT22;73666;51.304;5.776;2024-02-28T03:00:15;0.70;78.40
83685;DHT22;73666;51.304;5.776;2024-02-28T03:05:16;0.70;78.40
83685;DHT22;73666;51.304;5.776;2024-02-28T03:10:17;0.60;78.40
83685;DHT22;73666;51.304;5.776;2024-02-28T03:15:21;0.60;78.40
83685;DHT22;73666;51.304;5.776;2024-02-28T03:20:22;0.60;78.40
83685;DHT22;73666;51.304;5.776;2024-02-28T03:25:23;0.60;78.40
83685;DHT22;73666;51.304;5.776;2024-02-28T03:30:24;0.60;78.40
83685;DHT22;73666;51.304;5.776;2024-02-28T03:35:24;0.60;78.40
83685;DHT22;73666;51.304;5.776;2024-02-28T03:40:25;0.50;78.40
83685;DHT22;73666;51.304;5.776;2024-02-28T03:45:28;0.60;78.40
83685;DHT22;73666;51.304;5.776;2024-02-28T03:50:30;0.50;78.40
83685;DHT22;73666;51.304;5.776;2024-02-28T03:55:30;0.50;78.40
83685;DHT22;73666;51.304;5.776;2024-02-28T04:00:31;0.50;78.50
83685;DHT22;73666;51.304;5.776;2024-02-28T04:05:32;0.50;78.50
83685;DHT22;73666;51.304;5.776;2024-02-28T04:10:33;0.50;78.40
83685;DHT22;73666;51.304;5.776;2024-02-28T04:15:35;0.40;78.50
83685;DHT22;73666;51.304;5.776;2024-02-28T04:20:36;0.40;78.50
83685;DHT22;73666;51.304;5.776;2024-02-28T04:25:36;0.30;78.50
83685;DHT22;73666;51.304;5.776;2024-02-28T04:30:40;0.30;78.40
83685;DHT22;73666;51.304;5.776;2024-02-28T04:35:41;0.20;78.60
83685;DHT22;73666;51.304;5.776;2024-02-28T04:40:42;0.10;78.60
83685;DHT22;73666;51.304;5.776;2024-02-28T04:45:43;0.10;78.60
83685;DHT22;73666;51.304;5.776;2024-02-28T04:50:43;0.10;78.70
83685;DHT22;73666;51.304;5.776;2024-02-28T04:55:45;0.00;78.70
83685;DHT22;73666;51.304;5.776;2024-02-28T05:00:47;0.10;78.70
83685;DHT22;73666;51.304;5.776;2024-02-28T05:05:47;0.10;78.80
83685;DHT22;73666;51.304;5.776;2024-02-28T05:10:49;0.10;78.70
83685;DHT22;73666;51.304;5.776;2024-02-28T05:15:51;0.10;78.80
83685;DHT22;73666;51.304;5.776;2024-02-28T05:20:54;0.10;78.80
83685;DHT22;73666;51.304;5.776;2024-02-28T05:25:55;0.00;78.70
83685;DHT22;73666;51.304;5.776;2024-02-28T05:30:56;0.00;78.70
83685;DHT22;73666;51.304;5.776;2024-02-28T05:35:57;0.00;78.70
83685;DHT22;73666;51.304;5.776;2024-02-28T05:40:58;0.00;78.80
83685;DHT22;73666;51.304;5.776;2024-02-28T05:45:59;0.00;78.90
83685;DHT22;73666;51.304;5.776;2024-02-28T05:51:01;0.00;78.80
83685;DHT22;73666;51.304;5.776;2024-02-28T05:56:02;0.00;78.80
83685;DHT22;73666;51.304;5.776;2024-02-28T06:01:03;0.00;78.90
83685;DHT22;73666;51.304;5.776;2024-02-28T06:06:04;0.00;78.90
83685;DHT22;73666;51.304;5.776;2024-02-28T06:11:06;0.00;78.90
83685;DHT22;73666;51.304;5.776;2024-02-28T06:16:07;0.00;78.90
83685;DHT22;73666;51.304;5.776;2024-02-28T06:21:08;0.00;79.00
83685;DHT22;73666;51.304;5.776;2024-02-28T06:26:10;0.00;79.00
83685;DHT22;73666;51.304;5.776;2024-02-28T06:31:17;0.00;79.10
83685;DHT22;73666;51.304;5.776;2024-02-28T06:36:18;0.00;79.10
83685;DHT22;73666;51.304;5.776;2024-02-28T06:41:18;0.00;79.10
83685;DHT22;73666;51.304;5.776;2024-02-28T06:46:19;0.00;79.10
83685;DHT22;73666;51.304;5.776;2024-02-28T06:51:20;0.00;79.10
83685;DHT22;73666;51.304;5.776;2024-02-28T06:56:20;0.20;79.20
83685;DHT22;73666;51.304;5.776;2024-02-28T07:01:21;0.20;79.10
83685;DHT22;73666;51.304;5.776;2024-02-28T07:06:22;0.30;79.10
83685;DHT22;73666;51.304;5.776;2024-02-28T07:11:23;0.40;79.00
83685;DHT22;73666;51.304;5.776;2024-02-28T07:16:24;0.50;79.00
83685;DHT22;73666;51.304;5.776;2024-02-28T07:21:24;0.60;79.00
83685;DHT22;73666;51.304;5.776;2024-02-28T07:26:26;0.80;79.00
83685;DHT22;73666;51.304;5.776;2024-02-28T07:31:26;1.10;78.70
83685;DHT22;73666;51.304;5.776;2024-02-28T07:36:27;1.60;78.10
83685;DHT22;73666;51.304;5.776;2024-02-28T07:41:31;1.90;77.60
83685;DHT22;73666;51.304;5.776;2024-02-28T07:46:33;2.00;77.40
83685;DHT22;73666;51.304;5.776;2024-02-28T07:51:34;2.10;77.20
83685;DHT22;73666;51.304;5.776;2024-02-28T07:56:34;2.00;77.30
83685;DHT22;73666;51.304;5.776;2024-02-28T08:01:35;2.00;77.50
83685;DHT22;73666;51.304;5.776;2024-02-28T08:06:40;2.00;77.60
83685;DHT22;73666;51.304;5.776;2024-02-28T08:11:41;2.10;77.60
83685;DHT22;73666;51.304;5.776;2024-02-28T08:16:42;2.30;77.50
83685;DHT22;73666;51.304;5.776;2024-02-28T08:21:42;2.50;77.50
83685;DHT22;73666;51.304;5.776;2024-02-28T08:26:43;2.80;77.10
83685;DHT22;73666;51.304;5.776;2024-02-28T08:31:44;3.10;76.80
83685;DHT22;73666;51.304;5.776;2024-02-28T08:36:45;3.20;76.60
83685;DHT22;73666;51.304;5.776;2024-02-28T08:41:46;3.50;76.40
83685;DHT22;73666;51.304;5.776;2024-02-28T08:46:47;4.10;76.00
83685;DHT22;73666;51.304;5.776;2024-02-28T08:51:48;5.00;75.00
83685;DHT22;73666;51.304;5.776;2024-02-28T08:56:49;6.70;72.20
83685;DHT22;73666;51.304;5.776;2024-02-28T09:01:50;7.90;70.10
83685;DHT22;73666;51.304;5.776;2024-02-28T09:06:51;9.00;68.20
83685;DHT22;73666;51.304;5.776;2024-02-28T09:11:53;9.30;67.60
83685;DHT22;73666;51.304;5.776;2024-02-28T09:16:54;9.70;67.30
83685;DHT22;73666;51.304;5.776;2024-02-28T09:22:01;10.10;67.00
83685;DHT22;73666;51.304;5.776;2024-02-28T09:27:02;10.20;67.10
83685;DHT22;73666;51.304;5.776;2024-02-28T09:32:04;10.30;66.80
83685;DHT22;73666;51.304;5.776;2024-02-28T09:37:08;9.80;67.50
83685;DHT22;73666;51.304;5.776;2024-02-28T09:42:09;9.00;69.20
83685;DHT22;73666;51.304;5.776;2024-02-28T09:47:10;8.40;70.70
83685;DHT22;73666;51.304;5.776;2024-02-28T09:52:13;8.30;71.20
83685;DHT22;73666;51.304;5.776;2024-02-28T09:57:14;8.30;70.90
83685;DHT22;73666;51.304;5.776;2024-02-28T10:02:15;8.00;71.80
83685;DHT22;73666;51.304;5.776;2024-02-28T10:07:17;8.00;72.20
83685;DHT22;73666;51.304;5.776;2024-02-28T10:12:19;8.00;72.60
83685;DHT22;73666;51.304;5.776;2024-02-28T10:17:20;8.00;72.70
83685;DHT22;73666;51.304;5.776;2024-02-28T10:22:21;8.00;72.50
83685;DHT22;73666;51.304;5.776;2024-02-28T10:27:22;8.20;72.50
83685;DHT22;73666;51.304;5.776;2024-02-28T10:32:23;8.50;72.30
83685;DHT22;73666;51.304;5.776;2024-02-28T10:37:24;8.60;71.90
83685;DHT22;73666;51.304;5.776;2024-02-28T10:42:27;8.70;71.50
83685;DHT22;73666;51.304;5.776;2024-02-28T10:47:30;8.60;71.90
83685;DHT22;73666;51.304;5.776;2024-02-28T10:52:33;8.40;72.40
83685;DHT22;73666;51.304;5.776;2024-02-28T10:57:36;8.40;72.90
83685;DHT22;73666;51.304;5.776;2024-02-28T11:02:37;8.40;73.00
83685;DHT22;73666;51.304;5.776;2024-02-28T11:07:41;8.50;72.90
83685;DHT22;73666;51.304;5.776;2024-02-28T11:12:43;8.60;72.50
83685;DHT22;73666;51.304;5.776;2024-02-28T11:17:44;8.60;72.60
83685;DHT22;73666;51.304;5.776;2024-02-28T11:22:44;8.50;72.90
83685;DHT22;73666;51.304;5.776;2024-02-28T11:27:46;8.40;72.90
83685;DHT22;73666;51.304;5.776;2024-02-28T11:32:47;8.50;72.90
83685;DHT22;73666;51.304;5.776;2024-02-28T11:37:49;8.80;72.70
83685;DHT22;73666;51.304;5.776;2024-02-28T11:42:52;8.80;72.50
83685;DHT22;73666;51.304;5.776;2024-02-28T11:47:52;8.80;72.60
83685;DHT22;73666;51.304;5.776;2024-02-28T11:52:55;8.80;72.50
83685;DHT22;73666;51.304;5.776;2024-02-28T11:57:55;8.70;72.30
83685;DHT22;73666;51.304;5.776;2024-02-28T12:03:06;8.60;72.60
83685;DHT22;73666;51.304;5.776;2024-02-28T12:08:07;8.60;72.60
83685;DHT22;73666;51.304;5.776;2024-02-28T12:13:09;8.70;72.70
83685;DHT22;73666;51.304;5.776;2024-02-28T12:18:11;8.80;72.20
83685;DHT22;73666;51.304;5.776;2024-02-28T12:23:12;8.80;72.30
83685;DHT22;73666;51.304;5.776;2024-02-28T12:28:12;8.90;72.40
83685;DHT22;73666;51.304;5.776;2024-02-28T12:33:17;9.00;72.30
83685;DHT22;73666;51.304;5.776;2024-02-28T12:38:17;9.10;72.30
83685;DHT22;73666;51.304;5.776;2024-02-28T12:43:18;9.50;71.90
83685;DHT22;73666;51.304;5.776;2024-02-28T12:48:19;9.70;71.70
83685;DHT22;73666;51.304;5.776;2024-02-28T12:53:20;10.10;71.50
83685;DHT22;73666;51.304;5.776;2024-02-28T12:58:20;10.20;71.50
83685;DHT22;73666;51.304;5.776;2024-02-28T13:03:21;10.50;70.90
83685;DHT22;73666;51.304;5.776;2024-02-28T13:08:22;10.50;70.80
83685;DHT22;73666;51.304;5.776;2024-02-28T13:13:22;10.50;70.90
83685;DHT22;73666;51.304;5.776;2024-02-28T13:18:23;10.40;70.90
83685;DHT22;73666;51.304;5.776;2024-02-28T13:23:25;10.30;71.20
83685;DHT22;73666;51.304;5.776;2024-02-28T13:28:27;10.20;71.00
83685;DHT22;73666;51.304;5.776;2024-02-28T13:33:31;10.00;71.10
83685;DHT22;73666;51.304;5.776;2024-02-28T13:38:31;10.00;71.30
83685;DHT22;73666;51.304;5.776;2024-02-28T13:43:33;10.10;71.40
83685;DHT22;73666;51.304;5.776;2024-02-28T13:48:33;10.30;71.20
83685;DHT22;73666;51.304;5.776;2024-02-28T13:53:34;10.50;70.90
83685;DHT22;73666;51.304;5.776;2024-02-28T13:58:35;10.70;70.70
83685;DHT22;73666;51.304;5.776;2024-02-28T14:03:36;10.80;70.50
83685;DHT22;73666;51.304;5.776;2024-02-28T14:08:37;10.90;70.30
83685;DHT22;73666;51.304;5.776;2024-02-28T14:13:38;10.90;70.20
83685;DHT22;73666;51.304;5.776;2024-02-28T14:18:40;11.10;70.20
83685;DHT22;73666;51.304;5.776;2024-02-28T14:23:40;11.10;70.10
83685;DHT22;73666;51.304;5.776;2024-02-28T14:28:41;11.00;70.10
83685;DHT22;73666;51.304;5.776;2024-02-28T14:33:42;10.70;70.30
83685;DHT22;73666;51.304;5.776;2024-02-28T14:38:43;10.50;70.70
83685;DHT22;73666;51.304;5.776;2024-02-28T14:43:44;10.40;70.90
83685;DHT22;73666;51.304;5.776;2024-02-28T14:48:45;10.40;71.00
83685;DHT22;73666;51.304;5.776;2024-02-28T14:53:51;10.30;71.00
83685;DHT22;73666;51.304;5.776;2024-02-28T14:58:52;10.40;71.00
83685;DHT22;73666;51.304;5.776;2024-02-28T15:03:53;10.40;70.80
83685;DHT22;73666;51.304;5.776;2024-02-28T15:08:54;10.40;70.90
83685;DHT22;73666;51.304;5.776;2024-02-28T15:13:54;10.40;70.90
83685;DHT22;73666;51.304;5.776;2024-02-28T15:18:55;10.40;70.90
83685;DHT22;73666;51.304;5.776;2024-02-28T15:23:57;10.30;71.00
83685;DHT22;73666;51.304;5.776;2024-02-28T15:28:58;10.30;70.90
83685;DHT22;73666;51.304;5.776;2024-02-28T15:33:58;10.20;71.00
83685;DHT22;73666;51.304;5.776;2024-02-28T15:38:59;10.30;71.00
83685;DHT22;73666;51.304;5.776;2024-02-28T15:44:00;10.30;71.00
83685;DHT22;73666;51.304;5.776;2024-02-28T15:49:01;10.10;71.10
83685;DHT22;73666;51.304;5.776;2024-02-28T15:54:02;10.00;71.20
83685;DHT22;73666;51.304;5.776;2024-02-28T15:59:02;9.90;71.50
83685;DHT22;73666;51.304;5.776;2024-02-28T16:04:05;9.80;71.60
83685;DHT22;73666;51.304;5.776;2024-02-28T16:09:06;9.70;71.60
83685;DHT22;73666;51.304;5.776;2024-02-28T16:14:07;9.60;71.70
83685;DHT22;73666;51.304;5.776;2024-02-28T16:19:08;9.60;71.80
83685;DHT22;73666;51.304;5.776;2024-02-28T16:24:09;9.60;71.90
83685;DHT22;73666;51.304;5.776;2024-02-28T16:29:09;9.50;72.10
83685;DHT22;73666;51.304;5.776;2024-02-28T16:34:10;9.50;72.20
83685;DHT22;73666;51.304;5.776;2024-02-28T16:39:11;9.60;72.20
83685;DHT22;73666;51.304;5.776;2024-02-28T16:44:13;9.50;72.20
83685;DHT22;73666;51.304;5.776;2024-02-28T16:49:15;9.40;72.30
83685;DHT22;73666;51.304;5.776;2024-02-28T16:54:16;9.20;72.30
83685;DHT22;73666;51.304;5.776;2024-02-28T16:59:19;9.00;72.50
83685;DHT22;73666;51.304;5.776;2024-02-28T17:04:20;8.90;72.50
83685;DHT22;73666;51.304;5.776;2024-02-28T17:09:21;8.80;72.60
83685;DHT22;73666;51.304;5.776;2024-02-28T17:14:21;8.60;72.80
83685;DHT22;73666;51.304;5.776;2024-02-28T17:19:22;8.50;73.10
83685;DHT22;73666;51.304;5.776;2024-02-28T17:24:23;8.40;73.20
83685;DHT22;73666;51.304;5.776;2024-02-28T17:29:24;8.30;73.50
83685;DHT22;73666;51.304;5.776;2024-02-28T17:34:25;8.20;73.50
83685;DHT22;73666;51.304;5.776;2024-02-28T17:39:26;8.10;73.60
83685;DHT22;73666;51.304;5.776;2024-02-28T17:44:26;8.10;73.90
83685;DHT22;73666;51.304;5.776;2024-02-28T17:49:28;8.00;74.10
83685;DHT22;73666;51.304;5.776;2024-02-28T17:54:30;7.80;74.20
83685;DHT22;73666;51.304;5.776;2024-02-28T17:59:31;7.80;74.20
83685;DHT22;73666;51.304;5.776;2024-02-28T18:04:32;7.80;74.20
83685;DHT22;73666;51.304;5.776;2024-02-28T18:09:33;7.80;74.30
83685;DHT22;73666;51.304;5.776;2024-02-28T18:14:34;7.80;74.30
83685;DHT22;73666;51.304;5.776;2024-02-28T18:19:35;7.70;74.30
83685;DHT22;73666;51.304;5.776;2024-02-28T18:24:37;7.70;74.10
83685;DHT22;73666;51.304;5.776;2024-02-28T18:29:38;7.70;74.20
83685;DHT22;73666;51.304;5.776;2024-02-28T18:34:39;7.60;74.40
83685;DHT22;73666;51.304;5.776;2024-02-28T18:39:40;7.50;74.40
83685;DHT22;73666;51.304;5.776;2024-02-28T18:44:43;7.50;74.70
83685;DHT22;73666;51.304;5.776;2024-02-28T18:49:45;7.50;74.80
83685;DHT22;73666;51.304;5.776;2024-02-28T18:54:46;7.40;74.70
83685;DHT22;73666;51.304;5.776;2024-02-28T18:59:48;7.20;74.90
83685;DHT22;73666;51.304;5.776;2024-02-28T19:04:48;7.20;75.00
83685;DHT22;73666;51.304;5.776;2024-02-28T19:09:49;7.10;75.00
83685;DHT22;73666;51.304;5.776;2024-02-28T19:14:50;7.00;75.10
83685;DHT22;73666;51.304;5.776;2024-02-28T19:19:51;6.90;75.10
83685;DHT22;73666;51.304;5.776;2024-02-28T19:24:51;6.90;75.10
83685;DHT22;73666;51.304;5.776;2024-02-28T19:29:52;6.80;75.20
83685;DHT22;73666;51.304;5.776;2024-02-28T19:34:54;6.80;75.30
83685;DHT22;73666;51.304;5.776;2024-02-28T19:39:55;6.60;75.30
83685;DHT22;73666;51.304;5.776;2024-02-28T19:45:08;6.50;75.30
83685;DHT22;73666;51.304;5.776;2024-02-28T19:50:09;6.40;75.30
83685;DHT22;73666;51.304;5.776;2024-02-28T19:55:12;6.30;75.50
83685;DHT22;73666;51.304;5.776;2024-02-28T20:00:13;6.20;75.60
83685;DHT22;73666;51.304;5.776;2024-02-28T20:05:14;6.10;75.70
83685;DHT22;73666;51.304;5.776;2024-02-28T20:10:15;6.00;75.70
83685;DHT22;73666;51.304;5.776;2024-02-28T20:15:17;5.90;75.90
83685;DHT22;73666;51.304;5.776;2024-02-28T20:20:19;5.90;76.00
83685;DHT22;73666;51.304;5.776;2024-02-28T20:25:20;5.90;76.00
83685;DHT22;73666;51.304;5.776;2024-02-28T20:30:21;5.90;76.00
83685;DHT22;73666;51.304;5.776;2024-02-28T20:35:22;5.90;76.10
83685;DHT22;73666;51.304;5.776;2024-02-28T20:40:23;5.90;76.10
83685;DHT22;73666;51.304;5.776;2024-02-28T20:45:26;5.90;76.20
83685;DHT22;73666;51.304;5.776;2024-02-28T20:50:27;5.90;76.20
83685;DHT22;73666;51.304;5.776;2024-02-28T20:55:31;5.90;76.20
83685;DHT22;73666;51.304;5.776;2024-02-28T21:00:33;5.80;76.40
83685;DHT22;73666;51.304;5.776;2024-02-28T21:05:34;5.70;76.40
83685;DHT22;73666;51.304;5.776;2024-02-28T21:10:36;5.70;76.50
83685;DHT22;73666;51.304;5.776;2024-02-28T21:15:38;5.60;76.60
83685;DHT22;73666;51.304;5.776;2024-02-28T21:20:40;5.50;76.80
83685;DHT22;73666;51.304;5.776;2024-02-28T21:25:42;5.50;76.90
83685;DHT22;73666;51.304;5.776;2024-02-28T21:30:45;5.40;76.90
83685;DHT22;73666;51.304;5.776;2024-02-28T21:35:47;5.30;76.80
83685;DHT22;73666;51.304;5.776;2024-02-28T21:40:47;5.30;76.80
83685;DHT22;73666;51.304;5.776;2024-02-28T21:45:48;5.30;76.90
83685;DHT22;73666;51.304;5.776;2024-02-28T21:50:50;5.20;77.00
83685;DHT22;73666;51.304;5.776;2024-02-28T21:55:52;5.10;77.00
83685;DHT22;73666;51.304;5.776;2024-02-28T22:00:53;5.10;77.00
83685;DHT22;73666;51.304;5.776;2024-02-28T22:05:55;5.00;77.10
83685;DHT22;73666;51.304;5.776;2024-02-28T22:10:56;5.00;77.20
83685;DHT22;73666;51.304;5.776;2024-02-28T22:15:58;5.00;77.10
83685;DHT22;73666;51.304;5.776;2024-02-28T22:21:01;4.90;77.00
83685;DHT22;73666;51.304;5.776;2024-02-28T22:26:02;4.90;76.90
83685;DHT22;73666;51.304;5.776;2024-02-28T22:31:03;4.90;76.90
83685;DHT22;73666;51.304;5.776;2024-02-28T22:36:08;4.80;76.80
83685;DHT22;73666;51.304;5.776;2024-02-28T22:41:10;4.70;76.70
83685;DHT22;73666;51.304;5.776;2024-02-28T22:46:11;4.70;76.70
83685;DHT22;73666;51.304;5.776;2024-02-28T22:51:13;4.60;76.50
83685;DHT22;73666;51.304;5.776;2024-02-28T22:56:13;4.50;76.50
83685;DHT22;73666;51.304;5.776;2024-02-28T23:01:14;4.50;76.50
83685;DHT22;73666;51.304;5.776;2024-02-28T23:06:15;4.40;76.50
83685;DHT22;73666;51.304;5.776;2024-02-28T23:11:17;4.40;76.50
83685;DHT22;73666;51.304;5.776;2024-02-28T23:16:18;4.30;76.50
83685;DHT22;73666;51.304;5.776;2024-02-28T23:21:19;4.30;76.50
83685;DHT22;73666;51.304;5.776;2024-02-28T23:26:20;4.20;76.50
83685;DHT22;73666;51.304;5.776;2024-02-28T23:31:21;4.10;76.50
83685;DHT22;73666;51.304;5.776;2024-02-28T23:36:22;4.10;76.60
83685;DHT22;73666;51.304;5.776;2024-02-28T23:41:23;4.10;76.60
83685;DHT22;73666;51.304;5.776;2024-02-28T23:46:23;4.10;76.60
83685;DHT22;73666;51.304;5.776;2024-02-28T23:51:25;4.10;76.50
83685;DHT22;73666;51.304;5.776;2024-02-28T23:56:27;4.00;76.50
